Time;durP1;ratioP1;P1;durP2;ratioP2;P2;SDS_P1;SDS_P2;PMS_P1;PMS_P2;Temp;Humidity;BMP_temperature;BMP_pressure;BME280_temperature;BME280_humidity;BME280_pressure;Samples;Min_cycle;Max_cycle;Signal;HPM_P1;HPM_P2
2022/03/24 00:01:48;;;;;;;;;22.00;18.50;;;;;22.08;40.75;102191.38;110148;1264;18816;-50
2022/03/24 00:04:15;;;;;;;;;18.67;18.33;;;;;22.07;40.83;102186.52;110269;1264;18795;-50
2022/03/24 00:06:43;;;;;;;;;21.00;18.50;;;;;22.08;40.78;102186.11;110201;1265;20289;-51
2022/03/24 00:09:10;;;;;;;;;18.00;17.00;;;;;22.06;40.80;102182.77;110198;1264;18822;-49
2022/03/24 00:11:40;;;;;;;;;18.33;17.00;;;;;22.07;40.78;102188.42;110169;1265;22438;-50
2022/03/24 00:14:07;;;;;;;;;19.50;17.50;;;;;22.06;40.68;102187.18;110169;1264;18714;-50
2022/03/24 00:16:34;;;;;;;;;17.00;17.00;;;;;22.07;40.85;102188.61;110168;1265;22042;-49
2022/03/24 00:19:02;;;;;;;;;23.00;20.00;;;;;22.06;40.74;102186.69;110171;1265;18196;-48
2022/03/24 00:21:29;;;;;;;;;18.67;17.67;;;;;22.06;40.78;102186.84;110189;1264;21883;-48
2022/03/24 00:23:57;;;;;;;;;18.00;18.00;;;;;22.04;40.66;102182.80;110049;1265;18676;-48
2022/03/24 00:26:24;;;;;;;;;22.33;19.67;;;;;22.04;40.73;102183.25;110195;1264;18239;-48
2022/03/24 00:28:52;;;;;;;;;19.00;17.00;;;;;22.04;40.78;102181.77;110209;1264;20404;-48
2022/03/24 00:31:19;;;;;;;;;21.00;18.00;;;;;22.03;40.68;102179.86;110220;1264;18765;-49
2022/03/24 00:33:47;;;;;;;;;21.67;18.00;;;;;22.03;40.73;102180.44;110138;1264;18224;-47
2022/03/24 00:36:15;;;;;;;;;18.33;18.33;;;;;22.03;40.67;102180.38;110179;1265;18577;-54
2022/03/24 00:38:43;;;;;;;;;22.00;19.00;;;;;22.03;40.50;102179.65;110181;1264;18751;-50
2022/03/24 00:41:10;;;;;;;;;23.00;21.00;;;;;22.03;40.59;102177.30;110182;1264;18270;-47
2022/03/24 00:43:39;;;;;;;;;20.50;19.50;;;;;22.02;40.66;102173.20;110232;1264;18832;-48
2022/03/24 00:46:06;;;;;;;;;18.00;17.33;;;;;22.02;40.54;102175.76;110258;1264;18791;-47
2022/03/24 00:48:34;;;;;;;;;21.00;18.00;;;;;22.02;40.36;102173.02;110202;1265;18389;-47
2022/03/24 00:51:02;;;;;;;;;21.00;17.00;;;;;22.04;40.60;102172.70;110163;1264;18681;-48
2022/03/24 00:53:29;;;;;;;;;21.00;18.00;;;;;22.03;40.41;102177.30;110175;1264;18762;-47
2022/03/24 00:55:58;;;;;;;;;21.00;18.33;;;;;22.01;40.59;102170.02;110112;1264;18200;-49
2022/03/24 00:58:26;;;;;;;;;17.00;15.00;;;;;22.03;40.50;102176.41;110221;1264;18673;-48
2022/03/24 01:00:54;;;;;;;;;18.00;18.00;;;;;22.02;40.43;102170.46;110135;1265;21068;-49
2022/03/24 01:03:21;;;;;;;;;19.33;17.00;;;;;22.02;40.49;102173.95;110230;1264;18675;-49
2022/03/24 01:05:48;;;;;;;;;18.50;17.50;;;;;22.01;40.47;102170.23;110230;1264;18663;-48
2022/03/24 01:08:17;;;;;;;;;18.33;18.00;;;;;22.02;40.35;102174.70;110219;1264;18843;-49
2022/03/24 01:10:44;;;;;;;;;18.50;18.00;;;;;22.01;40.31;102172.60;110223;1264;18529;-48
2022/03/24 01:13:11;;;;;;;;;18.00;17.00;;;;;22.02;40.29;102177.80;110237;1264;18870;-48
2022/03/24 01:15:38;;;;;;;;;19.00;18.00;;;;;22.02;40.13;102170.33;110303;1264;18716;-49
2022/03/24 01:18:07;;;;;;;;;17.00;17.00;;;;;22.01;40.38;102173.11;110231;1264;18885;-50
2022/03/24 01:20:34;;;;;;;;;18.67;17.67;;;;;22.01;40.29;102172.60;110221;1264;18734;-47
2022/03/24 01:23:02;;;;;;;;;19.67;19.00;;;;;22.00;40.30;102168.17;110212;1265;18894;-49
2022/03/24 01:25:29;;;;;;;;;17.67;16.67;;;;;22.01;40.22;102169.30;110289;1264;18560;-49
2022/03/24 01:27:57;;;;;;;;;18.33;17.33;;;;;22.01;40.40;102170.98;110152;1264;18749;-47
2022/03/24 01:30:24;;;;;;;;;17.00;16.33;;;;;22.00;40.20;102167.41;110259;1264;18771;-49
2022/03/24 01:32:52;;;;;;;;;17.67;17.00;;;;;21.99;40.30;102166.77;110076;1264;18415;-50
2022/03/24 01:35:20;;;;;;;;;19.00;17.33;;;;;21.99;40.26;102161.66;110203;1264;20204;-47
2022/03/24 01:37:48;;;;;;;;;21.00;17.67;;;;;22.00;40.01;102160.16;110216;1264;19144;-52
2022/03/24 01:40:16;;;;;;;;;20.67;18.67;;;;;21.99;40.03;102157.66;110178;1264;18370;-53
2022/03/24 01:42:44;;;;;;;;;18.00;18.00;;;;;22.00;40.07;102159.79;110285;1264;18846;-52
2022/03/24 01:45:12;;;;;;;;;19.00;18.33;;;;;21.99;40.27;102160.56;110086;1264;18739;-49
2022/03/24 01:47:39;;;;;;;;;21.67;19.67;;;;;21.99;40.08;102160.22;110042;1264;18313;-50
2022/03/24 01:50:07;;;;;;;;;19.00;17.67;;;;;22.00;40.19;102160.84;110080;1264;18645;-47
2022/03/24 01:52:34;;;;;;;;;22.33;21.00;;;;;21.99;40.05;102159.81;110123;1264;20801;-48
2022/03/24 01:55:01;;;;;;;;;19.00;17.00;;;;;21.99;40.07;102163.09;110103;1264;20601;-50
2022/03/24 01:57:29;;;;;;;;;17.67;17.33;;;;;22.00;40.11;102162.52;110222;1264;21803;-48
2022/03/24 01:59:57;;;;;;;;;20.67;18.33;;;;;21.99;39.84;102159.31;110105;1265;18693;-47
2022/03/24 02:02:24;;;;;;;;;18.00;18.00;;;;;21.98;39.88;102160.30;110142;1264;19149;-49
2022/03/24 02:04:51;;;;;;;;;21.67;18.33;;;;;21.99;39.93;102162.83;110158;1264;18768;-51
2022/03/24 02:07:18;;;;;;;;;20.00;17.00;;;;;21.97;40.21;102160.02;110133;1267;24668;-47
2022/03/24 02:09:45;;;;;;;;;21.00;19.00;;;;;21.97;40.00;102162.81;110271;1265;18266;-47
2022/03/24 02:12:13;;;;;;;;;22.33;18.33;;;;;21.97;39.81;102163.20;110252;1265;22238;-49
2022/03/24 02:14:40;;;;;;;;;16.33;14.67;;;;;21.97;39.96;102164.08;110255;1264;18801;-49
2022/03/24 02:17:08;;;;;;;;;17.67;16.33;;;;;21.97;39.93;102161.39;110215;1264;21614;-49
2022/03/24 02:19:36;;;;;;;;;20.67;18.00;;;;;21.97;40.07;102160.05;110202;1264;18675;-49
2022/03/24 02:22:03;;;;;;;;;17.33;16.33;;;;;21.96;40.06;102160.02;110234;1265;18847;-48
2022/03/24 02:24:31;;;;;;;;;21.00;17.00;;;;;21.96;39.94;102165.06;110266;1264;19090;-48
2022/03/24 02:26:59;;;;;;;;;18.00;16.00;;;;;21.96;39.79;102164.92;110246;1264;18997;-48
2022/03/24 02:29:26;;;;;;;;;17.33;14.67;;;;;21.96;39.79;102170.55;110249;1264;18707;-48
2022/03/24 02:31:53;;;;;;;;;17.33;15.00;;;;;21.95;39.73;102167.91;110264;1264;19992;-49
2022/03/24 02:34:40;;;;;;;;;16.00;16.00;;;;;21.95;39.92;102166.08;110268;1264;18838;-48
2022/03/24 02:37:08;;;;;;;;;18.00;17.67;;;;;21.95;39.92;102167.35;110249;1264;18839;-51
2022/03/24 02:39:35;;;;;;;;;23.00;18.00;;;;;21.95;39.80;102169.73;110283;1264;22563;-48
2022/03/24 02:42:02;;;;;;;;;19.00;18.00;;;;;21.96;39.67;102164.72;110257;1264;18978;-49
2022/03/24 02:44:30;;;;;;;;;18.00;17.33;;;;;21.97;39.87;102170.84;110234;1265;18915;-47
2022/03/24 02:46:57;;;;;;;;;17.67;17.00;;;;;21.95;39.85;102168.81;110259;1265;18349;-48
2022/03/24 02:49:24;;;;;;;;;18.00;17.00;;;;;21.95;39.79;102169.94;110275;1264;25551;-48
2022/03/24 02:51:52;;;;;;;;;18.00;17.67;;;;;21.95;39.80;102167.44;110270;1264;20559;-49
2022/03/24 02:54:19;;;;;;;;;19.33;18.00;;;;;21.95;39.70;102170.83;110261;1265;18354;-48
2022/03/24 02:56:46;;;;;;;;;18.00;17.00;;;;;21.95;39.84;102168.88;110193;1264;19083;-49
2022/03/24 02:59:13;;;;;;;;;17.00;14.67;;;;;21.93;39.71;102168.32;110132;1264;18696;-47
2022/03/24 03:01:41;;;;;;;;;19.50;18.00;;;;;21.93;39.80;102169.27;110215;1264;18361;-49
2022/03/24 03:04:09;;;;;;;;;21.33;18.00;;;;;21.93;39.74;102170.11;110226;1264;18858;-47
2022/03/24 03:06:36;;;;;;;;;21.00;20.67;;;;;21.92;39.68;102170.16;110281;1264;18792;-47
2022/03/24 03:09:04;;;;;;;;;19.00;17.00;;;;;21.93;39.69;102172.27;110245;1265;19242;-48
2022/03/24 03:11:31;;;;;;;;;17.33;16.33;;;;;21.93;39.50;102173.81;110273;1264;18896;-49
2022/03/24 03:13:58;;;;;;;;;17.00;15.00;;;;;21.93;39.52;102176.71;110234;1264;18904;-48
2022/03/24 03:16:26;;;;;;;;;17.67;16.33;;;;;21.92;39.72;102181.16;110261;1264;18502;-47
2022/03/24 03:18:53;;;;;;;;;17.33;16.67;;;;;21.93;39.70;102185.07;110275;1265;19232;-48
2022/03/24 03:21:20;;;;;;;;;16.50;16.50;;;;;21.91;39.56;102182.30;110221;1265;18813;-50
2022/03/24 03:23:48;;;;;;;;;16.50;15.50;;;;;21.91;39.55;102187.27;110214;1264;18277;-49
2022/03/24 03:26:16;;;;;;;;;24.33;18.00;;;;;21.91;39.46;102181.81;110242;1265;18878;-48
2022/03/24 03:28:44;;;;;;;;;18.67;17.00;;;;;21.91;39.54;102181.07;110250;1265;18757;-48
2022/03/24 03:31:11;;;;;;;;;21.00;17.67;;;;;21.90;39.60;102179.48;110195;1264;18171;-53
2022/03/24 03:33:38;;;;;;;;;15.00;14.33;;;;;21.91;39.40;102178.34;110218;1264;20202;-48
2022/03/24 03:36:06;;;;;;;;;15.00;14.67;;;;;21.90;39.61;102177.54;110258;1264;19062;-47
2022/03/24 03:38:33;;;;;;;;;18.00;14.33;;;;;21.90;39.48;102180.06;110276;1265;18278;-47
2022/03/24 03:41:02;;;;;;;;;17.33;15.00;;;;;21.90;39.53;102176.63;110223;1265;18820;-47
2022/03/24 03:43:29;;;;;;;;;15.33;15.33;;;;;21.89;39.50;102179.58;110239;1264;18669;-48
2022/03/24 03:45:56;;;;;;;;;15.00;15.00;;;;;21.90;39.48;102179.73;110236;1264;21119;-48
2022/03/24 03:48:23;;;;;;;;;17.33;17.00;;;;;21.91;39.45;102179.60;110300;1264;18676;-47
2022/03/24 03:50:51;;;;;;;;;17.33;16.33;;;;;21.91;39.39;102181.40;110272;1265;18901;-48
2022/03/24 03:53:18;;;;;;;;;18.67;17.00;;;;;21.90;39.46;102183.67;110269;1265;18317;-51
2022/03/24 03:55:45;;;;;;;;;14.33;14.33;;;;;21.90;39.50;102181.67;110223;1264;18990;-54
2022/03/24 03:58:12;;;;;;;;;17.33;16.67;;;;;21.91;39.14;102185.27;110252;1264;18886;-50
2022/03/24 04:00:56;;;;;;;;;17.50;15.50;;;;;21.90;39.23;102186.47;110271;1264;18246;-50
2022/03/24 04:03:23;;;;;;;;;19.00;16.50;;;;;21.89;39.26;102186.68;110289;1264;22014;-49
2022/03/24 04:05:51;;;;;;;;;17.00;14.00;;;;;21.89;39.30;102186.33;110271;1265;18757;-49
2022/03/24 04:08:18;;;;;;;;;17.00;15.67;;;;;21.89;39.29;102185.30;110243;1264;18512;-49
2022/03/24 04:10:45;;;;;;;;;18.00;15.00;;;;;21.88;39.28;102185.73;110260;1264;18834;-48
2022/03/24 04:13:12;;;;;;;;;18.33;17.33;;;;;21.87;39.22;102189.26;110263;1264;18761;-48
2022/03/24 04:15:39;;;;;;;;;18.00;17.00;;;;;21.88;39.28;102188.09;110301;1264;22109;-48
2022/03/24 04:18:07;;;;;;;;;22.00;18.00;;;;;21.86;39.45;102187.20;110246;1264;18711;-48
2022/03/24 04:20:34;;;;;;;;;18.00;17.00;;;;;21.86;39.43;102183.38;110224;1264;19058;-49
2022/03/24 04:23:01;;;;;;;;;14.00;13.00;;;;;21.85;39.40;102184.12;110228;1264;18283;-49
2022/03/24 04:25:29;;;;;;;;;15.67;14.33;;;;;21.86;39.40;102181.02;110255;1265;20968;-48
2022/03/24 04:27:56;;;;;;;;;21.00;17.00;;;;;21.86;39.03;102179.49;110266;1264;19044;-51
2022/03/24 04:30:25;;;;;;;;;18.33;15.00;;;;;21.85;39.22;102187.05;110209;1264;18202;-48
2022/03/24 04:32:52;;;;;;;;;17.50;15.00;;;;;21.85;39.12;102189.42;110274;1264;18809;-50
2022/03/24 04:35:19;;;;;;;;;14.00;13.50;;;;;21.85;39.27;102184.16;110230;1264;19244;-50
2022/03/24 04:37:47;;;;;;;;;17.67;17.00;;;;;21.85;39.28;102191.59;110250;1265;19617;-49
2022/03/24 04:40:15;;;;;;;;;17.67;15.33;;;;;21.85;39.30;102195.14;110243;1264;20491;-48
2022/03/24 04:42:42;;;;;;;;;20.00;15.00;;;;;21.84;39.07;102188.59;110276;1264;18693;-48
2022/03/24 04:45:10;;;;;;;;;19.67;18.00;;;;;21.86;39.25;102187.17;110254;1264;21955;-49
2022/03/24 04:47:37;;;;;;;;;17.00;17.00;;;;;21.87;39.31;102187.05;110261;1264;18688;-48
2022/03/24 04:50:05;;;;;;;;;18.00;17.00;;;;;21.87;39.33;102185.06;110267;1265;19841;-48
2022/03/24 04:52:32;;;;;;;;;18.00;16.67;;;;;21.88;39.25;102187.55;110190;1264;19632;-47
2022/03/24 04:54:59;;;;;;;;;17.67;17.00;;;;;21.88;39.21;102190.23;110252;1265;22227;-47
2022/03/24 04:57:27;;;;;;;;;19.00;17.00;;;;;21.87;39.28;102192.56;110162;1265;19134;-49
2022/03/24 04:59:54;;;;;;;;;17.00;15.00;;;;;21.86;39.14;102190.81;110195;1264;18871;-48
2022/03/24 05:02:22;;;;;;;;;18.33;17.33;;;;;21.87;39.08;102193.83;110258;1265;18696;-48
2022/03/24 05:04:49;;;;;;;;;17.33;15.00;;;;;21.85;38.82;102194.52;110181;1265;18785;-48
2022/03/24 05:07:18;;;;;;;;;18.00;16.33;;;;;21.86;38.86;102193.89;110227;1265;18219;-51
2022/03/24 05:09:46;;;;;;;;;20.67;17.67;;;;;21.87;39.04;102195.38;110215;1265;18698;-52
2022/03/24 05:12:13;;;;;;;;;21.00;18.00;;;;;21.86;38.92;102192.63;110213;1264;19726;-48
2022/03/24 05:14:40;;;;;;;;;19.33;18.00;;;;;21.86;38.87;102192.25;110242;1264;21637;-52
2022/03/24 05:17:08;;;;;;;;;18.00;16.67;;;;;21.86;38.85;102191.91;110251;1264;18848;-50
2022/03/24 05:19:35;;;;;;;;;18.00;18.00;;;;;21.85;38.86;102189.04;110286;1265;20528;-50
2022/03/24 05:22:02;;;;;;;;;17.67;17.00;;;;;21.87;38.69;102189.84;110253;1264;18224;-56
2022/03/24 05:24:30;;;;;;;;;15.00;15.00;;;;;21.89;38.57;102192.03;110249;1265;22138;-52
2022/03/24 05:26:57;;;;;;;;;19.00;18.33;;;;;21.88;38.57;102186.23;110192;1264;18766;-52
2022/03/24 05:29:24;;;;;;;;;24.50;19.00;;;;;21.90;38.72;102187.54;110120;1264;22151;-50
2022/03/24 05:31:51;;;;;;;;;18.00;18.00;;;;;21.92;38.42;102189.88;110232;1264;18687;-48
2022/03/24 05:34:19;;;;;;;;;25.00;18.33;;;;;21.94;38.83;102189.18;110243;1264;22148;-50
2022/03/24 05:36:46;;;;;;;;;22.00;20.67;;;;;21.95;38.56;102192.66;110177;1264;18406;-51
2022/03/24 05:39:14;;;;;;;;;23.50;21.00;;;;;21.96;38.55;102192.54;110247;1264;19315;-50
2022/03/24 05:41:42;;;;;;;;;22.50;21.00;;;;;21.98;38.50;102192.55;110262;1264;18799;-49
2022/03/24 05:44:09;;;;;;;;;18.67;18.33;;;;;21.99;38.32;102196.66;110223;1264;18259;-50
2022/03/24 05:46:36;;;;;;;;;21.00;21.00;;;;;22.02;38.46;102194.21;110263;1264;18857;-50
2022/03/24 05:49:03;;;;;;;;;21.67;18.67;;;;;22.04;38.42;102197.79;110235;1265;18840;-49
2022/03/24 05:51:31;;;;;;;;;21.00;18.33;;;;;22.06;38.38;102198.89;110309;1264;18312;-50
2022/03/24 05:53:58;;;;;;;;;23.67;21.67;;;;;22.06;38.20;102198.48;110261;1264;18887;-50
2022/03/24 05:56:25;;;;;;;;;25.00;22.33;;;;;22.09;38.31;102204.02;110197;1264;20165;-48
2022/03/24 05:58:52;;;;;;;;;21.50;21.50;;;;;22.12;38.13;102203.23;110234;1264;18334;-55
2022/03/24 06:01:20;;;;;;;;;23.00;21.00;;;;;22.15;38.26;102202.60;110227;1264;20688;-52
2022/03/24 06:03:47;;;;;;;;;25.33;21.67;;;;;22.16;38.29;102203.80;110259;1264;18803;-51
2022/03/24 06:06:14;;;;;;;;;24.67;24.67;;;;;22.18;38.16;102201.19;110228;1264;18175;-56
2022/03/24 06:08:42;;;;;;;;;24.50;21.50;;;;;22.20;37.97;102201.58;110179;1264;19217;-51
2022/03/24 06:11:11;;;;;;;;;25.00;22.00;;;;;22.23;38.13;102199.98;110155;1264;18893;-49
2022/03/24 06:13:38;;;;;;;;;25.33;22.00;;;;;22.26;38.14;102198.02;110118;1265;18340;-50
2022/03/24 06:16:05;;;;;;;;;20.67;18.00;;;;;22.35;38.22;102202.54;110067;1264;20289;-52
2022/03/24 06:18:34;;;;;;;;;25.33;21.33;;;;;22.46;38.52;102202.79;109678;1264;18786;-50
2022/03/24 06:21:01;;;;;;;;;21.33;19.00;;;;;22.55;39.03;102204.40;110099;1264;22162;-51
2022/03/24 06:23:28;;;;;;;;;21.67;19.67;;;;;22.62;39.33;102203.34;110139;1265;18801;-50
2022/03/24 06:25:55;;;;;;;;;24.33;22.67;;;;;22.66;39.29;102199.66;110190;1264;18852;-51
2022/03/24 06:28:23;;;;;;;;;22.00;20.33;;;;;22.74;39.65;102204.13;110204;1264;18274;-51
2022/03/24 06:30:50;;;;;;;;;26.00;22.33;;;;;22.79;39.61;102205.65;110274;1265;23112;-50
2022/03/24 06:33:17;;;;;;;;;23.67;21.67;;;;;22.81;39.76;102204.64;110210;1264;18780;-50
2022/03/24 06:35:44;;;;;;;;;23.33;22.33;;;;;22.84;39.71;102205.13;110220;1264;18232;-52
2022/03/24 06:38:12;;;;;;;;;19.00;19.00;;;;;22.87;39.96;102209.05;110162;1264;21779;-52
2022/03/24 06:40:39;;;;;;;;;23.00;22.00;;;;;22.89;39.99;102209.34;110207;1264;19399;-52
2022/03/24 06:43:07;;;;;;;;;22.00;20.00;;;;;22.89;40.00;102213.04;110201;1264;18343;-50
2022/03/24 06:45:34;;;;;;;;;20.33;20.33;;;;;22.90;39.86;102211.88;110268;1265;19255;-51
2022/03/24 06:48:01;;;;;;;;;27.00;25.00;;;;;22.93;39.91;102219.39;110225;1264;18862;-51
2022/03/24 06:50:28;;;;;;;;;23.33;22.33;;;;;22.98;40.21;102214.83;110215;1265;18732;-50
2022/03/24 06:52:56;;;;;;;;;19.67;19.67;;;;;23.05;40.53;102217.77;110207;1264;18823;-51
2022/03/24 06:55:23;;;;;;;;;25.00;22.33;;;;;23.11;40.75;102220.48;110194;1265;19068;-50
2022/03/24 06:57:50;;;;;;;;;20.67;19.33;;;;;23.15;41.08;102218.74;110228;1264;18528;-51
2022/03/24 07:00:17;;;;;;;;;22.00;20.00;;;;;23.16;41.29;102223.74;110092;1264;20507;-50
2022/03/24 07:02:45;;;;;;;;;22.67;19.33;;;;;23.16;41.04;102223.05;110168;1264;18764;-48
2022/03/24 07:05:12;;;;;;;;;22.00;19.50;;;;;23.16;41.31;102219.67;110211;1264;18693;-52
2022/03/24 07:07:39;;;;;;;;;24.33;20.67;;;;;23.18;41.37;102220.98;110090;1264;20413;-50
2022/03/24 07:10:07;;;;;;;;;23.00;22.00;;;;;23.24;41.36;102221.89;110220;1264;18965;-51
2022/03/24 07:12:34;;;;;;;;;23.67;23.00;;;;;23.26;41.27;102222.44;110239;1264;18329;-55
2022/03/24 07:15:02;;;;;;;;;22.00;20.00;;;;;23.26;41.65;102227.36;110207;1264;18706;-51
2022/03/24 07:17:29;;;;;;;;;19.67;18.00;;;;;23.25;41.63;102226.70;110214;1264;21951;-49
2022/03/24 07:19:57;;;;;;;;;20.00;18.50;;;;;23.24;41.69;102224.57;110208;1264;24313;-50
2022/03/24 07:22:24;;;;;;;;;24.00;21.00;;;;;23.25;41.67;102222.38;110164;1264;21868;-50
2022/03/24 07:24:51;;;;;;;;;20.33;19.33;;;;;23.24;41.78;102224.02;110280;1264;18796;-52
2022/03/24 07:27:19;;;;;;;;;23.00;20.67;;;;;23.27;41.70;102227.92;110013;1264;20436;-48
2022/03/24 07:29:46;;;;;;;;;23.33;23.00;;;;;23.33;41.45;102228.02;110136;1265;22128;-49
2022/03/24 07:32:14;;;;;;;;;23.00;21.33;;;;;23.32;41.15;102224.33;110228;1264;18763;-50
2022/03/24 07:34:41;;;;;;;;;20.33;19.33;;;;;23.28;41.12;102219.40;110235;1264;19292;-51
2022/03/24 07:37:08;;;;;;;;;20.67;20.00;;;;;23.32;41.22;102218.61;110241;1264;18843;-50
2022/03/24 07:39:35;;;;;;;;;22.00;20.00;;;;;23.37;41.27;102218.14;110214;1264;18791;-49
2022/03/24 07:42:03;;;;;;;;;19.00;17.00;;;;;23.42;41.29;102213.41;110231;1265;31088;-49
2022/03/24 07:44:30;;;;;;;;;19.67;19.67;;;;;23.49;41.19;102214.74;110121;1264;18866;-50
2022/03/24 07:46:57;;;;;;;;;20.00;19.00;;;;;23.52;41.23;102216.02;110080;1265;18783;-49
2022/03/24 07:49:24;;;;;;;;;20.50;19.00;;;;;23.53;41.47;102215.59;110207;1264;18849;-49
2022/03/24 07:51:52;;;;;;;;;21.33;19.00;;;;;23.50;41.43;102214.77;110091;1264;151205;-50
2022/03/24 07:54:19;;;;;;;;;22.33;19.00;;;;;23.50;41.48;102214.31;110151;1264;20177;-50
2022/03/24 07:56:46;;;;;;;;;20.33;19.33;;;;;23.48;41.41;102212.04;110222;1264;18584;-47
2022/03/24 07:59:13;;;;;;;;;20.00;19.00;;;;;23.51;41.67;102211.27;110259;1265;18889;-54
2022/03/24 08:01:40;;;;;;;;;23.67;19.00;;;;;23.52;41.57;102214.58;110180;1264;19211;-52
2022/03/24 08:04:08;;;;;;;;;28.50;20.50;;;;;23.54;41.51;102211.04;110266;1264;18453;-50
2022/03/24 08:06:36;;;;;;;;;19.00;19.00;;;;;23.55;41.64;102211.14;110232;1264;19175;-51
2022/03/24 08:09:03;;;;;;;;;21.00;20.00;;;;;23.63;41.54;102209.59;110254;1264;18839;-49
2022/03/24 08:11:30;;;;;;;;;19.00;16.67;;;;;23.71;41.71;102210.42;110246;1265;23252;-47
2022/03/24 08:13:58;;;;;;;;;23.50;19.00;;;;;23.76;41.58;102211.86;110077;1264;18838;-54
2022/03/24 08:16:25;;;;;;;;;89.33;67.33;;;;;23.74;41.62;102210.47;109798;1264;19910;-51
2022/03/24 08:18:53;;;;;;;;;142.67;112.33;;;;;23.73;41.32;102211.33;110065;1264;18276;-52
2022/03/24 08:21:21;;;;;;;;;111.33;84.33;;;;;23.73;41.19;102212.46;109968;1265;18769;-52
2022/03/24 08:23:48;;;;;;;;;164.75;128.00;;;;;23.66;41.05;102219.84;110010;1264;25687;-51
2022/03/24 08:26:15;;;;;;;;;184.00;132.25;;;;;23.56;41.20;102220.35;110091;1264;18783;-50
2022/03/24 08:28:42;;;;;;;;;188.33;142.67;;;;;23.56;41.30;102216.73;110017;1265;23319;-50
2022/03/24 08:31:09;;;;;;;;;171.50;128.25;;;;;23.57;41.32;102217.00;109904;1264;19394;-51
2022/03/24 08:33:37;;;;;;;;;154.33;115.00;;;;;23.55;41.45;102219.21;109993;1264;18699;-53
2022/03/24 08:36:04;;;;;;;;;140.75;105.50;;;;;23.53;41.39;102217.62;110100;1264;21897;-54
2022/03/24 08:38:31;;;;;;;;;131.67;108.67;;;;;23.54;41.40;102219.82;110075;1264;19416;-51
2022/03/24 08:40:58;;;;;;;;;99.00;78.00;;;;;23.50;41.22;102217.73;110164;1264;19237;-52
2022/03/24 08:43:25;;;;;;;;;85.00;60.50;;;;;23.29;38.73;102215.83;110125;1264;22833;-52
2022/03/24 08:45:53;;;;;;;;;73.67;54.33;;;;;22.97;33.96;102219.80;110211;1264;18703;-51
2022/03/24 08:48:20;;;;;;;;;65.00;49.00;;;;;22.67;31.74;102224.52;110111;1264;18316;-50
2022/03/24 08:50:47;;;;;;;;;60.00;45.67;;;;;22.47;30.52;102222.52;110248;1264;23602;-51
2022/03/24 08:53:15;;;;;;;;;53.67;42.00;;;;;22.33;29.15;102217.19;110035;1264;19393;-49
2022/03/24 08:55:42;;;;;;;;;59.00;45.67;;;;;22.32;29.33;102220.55;110199;1265;18430;-51
2022/03/24 08:58:10;;;;;;;;;41.33;36.00;;;;;22.40;29.23;102221.71;110236;1264;19050;-48
2022/03/24 09:00:37;;;;;;;;;42.00;36.00;;;;;22.37;27.97;102223.87;110136;1264;18872;-54
2022/03/24 09:03:05;;;;;;;;;39.33;34.00;;;;;22.39;27.27;102222.00;110098;1264;18227;-49
2022/03/24 09:05:33;;;;;;;;;39.00;35.67;;;;;22.26;27.09;102221.12;110075;1264;18853;-50
2022/03/24 09:08:00;;;;;;;;;37.33;32.00;;;;;22.10;26.73;102219.16;109991;1264;18906;-51
2022/03/24 09:10:27;;;;;;;;;39.00;32.33;;;;;21.97;26.67;102217.60;110165;1264;18306;-52
2022/03/24 09:12:55;;;;;;;;;28.00;26.00;;;;;21.91;26.41;102218.53;110201;1264;19157;-51
2022/03/24 09:15:22;;;;;;;;;31.33;31.00;;;;;21.93;26.19;102215.64;109972;1264;20355;-49
2022/03/24 09:17:49;;;;;;;;;35.50;29.50;;;;;21.92;26.35;102218.30;110098;1264;18497;-51
2022/03/24 09:20:18;;;;;;;;;26.67;26.33;;;;;21.92;26.82;102212.60;110205;1264;19250;-51
2022/03/24 09:22:45;;;;;;;;;40.00;35.50;;;;;22.06;27.16;102212.89;110194;1264;18735;-52
2022/03/24 09:25:13;;;;;;;;;80.33;63.00;;;;;22.20;26.19;102214.59;110194;1264;18411;-49
2022/03/24 09:27:40;;;;;;;;;111.50;97.25;;;;;22.09;25.10;102211.15;110266;1264;18841;-51
2022/03/24 09:30:07;;;;;;;;;168.33;138.67;;;;;22.03;24.84;102208.29;110190;1264;19245;-51
2022/03/24 09:32:35;;;;;;;;;152.25;126.50;;;;;21.97;24.39;102205.75;110209;1264;18690;-51
2022/03/24 09:35:04;;;;;;;;;110.33;95.00;;;;;21.88;24.47;102203.85;110245;1264;18846;-50
2022/03/24 09:37:32;;;;;;;;;79.00;59.50;;;;;21.96;24.15;102204.55;110220;1264;19069;-52
2022/03/24 09:40:00;;;;;;;;;108.33;89.67;;;;;21.92;23.63;102205.10;110215;1264;18303;-49
2022/03/24 09:42:27;;;;;;;;;69.67;56.67;;;;;21.89;23.86;102202.71;110295;1264;20313;-50
2022/03/24 09:44:55;;;;;;;;;64.00;50.33;;;;;21.80;25.08;102208.38;110193;1265;19180;-50
2022/03/24 09:47:22;;;;;;;;;47.33;40.67;;;;;21.81;25.62;102207.27;110156;1264;23228;-51
2022/03/24 09:49:50;;;;;;;;;34.00;30.67;;;;;21.77;25.70;102209.35;110162;1265;18752;-50
2022/03/24 09:52:17;;;;;;;;;30.67;26.67;;;;;21.63;24.98;102203.93;110137;1264;20153;-52
2022/03/24 09:54:45;;;;;;;;;30.67;22.33;;;;;21.60;24.76;102206.95;110256;1264;18280;-51
2022/03/24 09:57:14;;;;;;;;;22.00;21.67;;;;;21.73;24.39;102209.02;110200;1264;19540;-50
2022/03/24 09:59:42;;;;;;;;;22.00;21.00;;;;;21.65;23.76;102212.38;110253;1264;21657;-51
2022/03/24 10:02:09;;;;;;;;;19.00;18.67;;;;;21.42;24.19;102208.86;110257;1264;18720;-49
2022/03/24 10:04:37;;;;;;;;;21.00;19.00;;;;;21.34;23.79;102210.92;110249;1264;18758;-51
2022/03/24 10:07:04;;;;;;;;;19.00;18.00;;;;;21.31;23.72;102211.55;110249;1264;18818;-51
2022/03/24 10:09:32;;;;;;;;;18.00;17.50;;;;;21.24;23.83;102214.40;110215;1264;18631;-52
2022/03/24 10:11:59;;;;;;;;;21.00;18.00;;;;;21.29;23.25;102213.88;110146;1264;24198;-50
2022/03/24 10:14:26;;;;;;;;;17.67;15.67;;;;;21.26;22.52;102212.34;110158;1264;21485;-52
2022/03/24 10:16:53;;;;;;;;;21.33;18.67;;;;;21.17;22.69;102214.47;110158;1264;18321;-52
2022/03/24 10:19:23;;;;;;;;;18.00;16.33;;;;;21.17;22.49;102213.02;110148;1265;23734;-56
2022/03/24 10:21:50;;;;;;;;;17.67;16.00;;;;;21.11;22.77;102210.17;110167;1264;18703;-50
2022/03/24 10:24:17;;;;;;;;;17.00;17.00;;;;;21.28;22.74;102210.27;110147;1265;18278;-51
2022/03/24 10:26:44;;;;;;;;;17.00;16.00;;;;;21.38;22.74;102207.63;110200;1264;21299;-52
2022/03/24 10:29:12;;;;;;;;;15.00;13.50;;;;;21.42;23.30;102203.20;110186;1264;20490;-53
2022/03/24 10:31:41;;;;;;;;;17.67;16.33;;;;;21.47;23.17;102205.30;110090;1264;21696;-49
2022/03/24 10:34:10;;;;;;;;;16.00;13.00;;;;;21.52;23.78;102203.23;110140;1264;19014;-54
2022/03/24 10:36:37;;;;;;;;;16.00;14.00;;;;;21.84;24.41;102195.95;110144;1265;22170;-50
2022/03/24 10:39:05;;;;;;;;;16.33;16.33;;;;;22.14;24.88;102190.64;110148;1265;18346;-53
2022/03/24 10:41:32;;;;;;;;;15.67;14.33;;;;;22.40;25.54;102192.81;110196;1265;18702;-50
2022/03/24 10:44:00;;;;;;;;;15.67;14.33;;;;;22.52;26.00;102187.79;110192;1264;21968;-50
2022/03/24 10:46:27;;;;;;;;;14.00;13.00;;;;;22.61;26.51;102180.69;110195;1264;18537;-50
2022/03/24 10:48:54;;;;;;;;;15.00;14.50;;;;;22.67;26.83;102180.65;110175;1264;22234;-50
2022/03/24 10:51:21;;;;;;;;;18.00;16.00;;;;;22.67;27.32;102172.45;109964;1264;18759;-52
2022/03/24 10:53:49;;;;;;;;;18.33;16.33;;;;;22.58;26.62;102172.77;110149;1264;21929;-49
2022/03/24 10:56:16;;;;;;;;;17.00;16.00;;;;;22.39;25.22;102177.44;110228;1264;18820;-51
2022/03/24 10:58:43;;;;;;;;;16.33;14.00;;;;;22.22;24.01;102178.24;110206;1264;20929;-52
2022/03/24 11:01:10;;;;;;;;;20.67;16.00;;;;;22.09;23.53;102172.03;110219;1264;18331;-54
2022/03/24 11:03:38;;;;;;;;;18.00;17.00;;;;;21.86;22.93;102169.88;110154;1264;21080;-52